Point Commerce, Indiana
Current Conditions -  °F | °C
As of 12:53 AM on Saturday 29 Nov 2014 (Local Time) from KBMG Reporting Station
Clear Clear  
Wind Chill: 26°   Ceiling: Unl
Heat Index: 33°   Visibility: 10mi
Dew Point: 24°   Wind: 8mph
Humidity: 70%   Direction: 150°SSE
Pressure: 30"   Gusts: NA
Location:  39.1287°N, 87.0295°W
Report Text: KBMG 290553Z 15007KT 10SM CLR 01/M04 A3000 RMK AO2 SLP165 T00061044 10017 20000 56013
Loading
Personal Weather Stations






























Interactive Weather Map New forecast layout! Learn more

10-Day Weather Forecast

Advertisements
Track Severe Weather on mobile